Surface/Precipitation History
02/22/2017 11:31  to  2/23/2017 11:31
Change End Date:
Date/Time
(MST)
Sf
Temp Chem Water Layer Surface Precipitation
Sfc Pvt Sub Frz Factor Pct Dpth DpthThk IcePct Cond Salin FI Type Intens Accum Rate
02/23/2017 11:06 Wet 33.4F - 32F 31F 95 3% 0.00 in - 0% 7 mhos 750 - Snow Slight 0.04 in 0.0 iph
02/23/2017 11:05 Wet 33.6F - 32F 31F 95 3% 0.00 in - 0% 7 mhos 748 - Snow Slight 0.04 in 0.0 iph
02/23/2017 10:55 Wet 33.1F - 32F 31F 95 3% 0.00 in - 0% 6 mhos 684 - Snow Slight 0.04 in 0.0 iph
02/23/2017 10:51 Wet 32.0F - 32F 31F 95 3% 0.00 in - 0% 6 mhos 688 - Snow Slight 0.04 in 0.0 iph
02/23/2017 10:45 Chemically Wet 31.3F - 32F 31F 95 3% 0.00 in - 0% 7 mhos 748 - Snow Slight 0.04 in 0.0 iph
02/23/2017 10:36 Chemically Wet 30.2F - 32F 31F 95 3% - - 59% 7 mhos 726 - Snow Slight 0.04 in 0.0 iph
02/23/2017 10:35 Chemically Wet 30.2F - 32F 31F 95 3% - - 52% 8 mhos 860 - Snow Slight 0.04 in 0.0 iph
02/23/2017 10:25 Chemically Wet 29.5F - 32F 31F 95 3% - - 65% 8 mhos 892 - Snow Slight 0.04 in 0.0 iph
02/23/2017 10:21 Chemically Wet 29.1F - 32F 31F 95 3% - - 70% 8 mhos 859 - Snow Slight 0.04 in 0.0 iph
02/23/2017 10:15 Chemically Wet 28.8F - 32F 31F 95 3% - - 75% 7 mhos 814 - Snow Slight 0.04 in 0.0 iph
02/23/2017 10:06 Chemically Wet 28.4F - 32F 31F 95 3% - - 80% 7 mhos 740 - Snow Slight 0.04 in 0.0 iph
02/23/2017 10:05 Chemically Wet 28.4F - 32F 31F 95 3% - - 80% 6 mhos 732 - Snow Slight 0.04 in 0.0 iph
02/23/2017 09:55 Ice Warning 27.7F - 32F 31F 95 2% - - 87% 5 mhos 553 - Snow Slight 0.04 in 0.0 iph
02/23/2017 09:51 Ice Warning 27.5F - 32F 31F 95 2% - - 88% 5 mhos 531 - Snow Slight 0.04 in 0.0 iph
02/23/2017 09:45 Ice Warning 27.3F - 32F 32F 95 2% - - 92% 3 mhos 395 - Snow Slight 0.04 in 0.0 iph
Date/Time
(MST)
Sf
Temp Chem Water Layer Surface Precipitation
Sfc Pvt Sub Frz Factor Pct Dpth DpthThk IcePct Cond Salin FI Type Intens Accum Rate
02/23/2017 09:36 Ice Warning 27.0F - 32F 32F 95 1% - - 96% 2 mhos 194 - Snow Slight 0.04 in 0.0 iph
02/23/2017 09:35 Ice Warning 27.0F - 32F 32F 95 1% - - 96% 2 mhos 191 - Snow Slight 0.04 in 0.0 iph
02/23/2017 09:25 Ice Warning 26.1F - 32F 32F 95 1% - - 97% 1 mhos 171 - Snow Slight 0.04 in 0.0 iph
02/23/2017 09:21 Ice Warning 25.7F - 32F 32F 95 1% - - 97% 1 mhos 165 - Snow Slight 0.04 in 0.0 iph
02/23/2017 09:15 Ice Warning 25.3F - 32F 32F 95 1% - - 98% 1 mhos 148 - Snow Slight 0.04 in 0.0 iph
02/23/2017 09:06 Ice Warning 24.8F - 32F 32F 95 0% - - 98% 1 mhos 113 - Snow Slight 0.04 in 0.0 iph
02/23/2017 09:05 Ice Warning 24.8F - 32F 32F 95 0% - - 99% 1 mhos 108 - Snow Slight 0.04 in 0.0 iph
02/23/2017 08:55 Ice Warning 23.9F - 32F 32F 95 0% - - 100% 0 mhos 42 - Snow Slight 0.04 in 0.0 iph
02/23/2017 08:51 Ice Warning 23.5F - 32F 32F 95 0% - - 100% 0 mhos 36 - Snow Slight 0.04 in 0.0 iph
02/23/2017 08:45 Ice Warning 23.0F - 32F 32F 75 0% - - 100% 0 mhos 32 - Snow Slight 0.04 in 0.0 iph
02/23/2017 08:36 Ice Warning 22.5F - 32F 32F 60 0% - - 100% 0 mhos 30 - Snow Slight 0.04 in 0.0 iph
02/23/2017 08:35 Ice Warning 22.5F - 32F 32F 60 0% - - 100% 0 mhos 29 - Snow Slight 0.04 in 0.0 iph
02/23/2017 08:25 Ice Warning 22.1F - 32F 32F 50 0% - - 100% 0 mhos 27 - Snow Slight 0.04 in 0.0 iph
02/23/2017 08:21 Ice Warning 21.9F - 32F 32F 45 0% - - 100% 0 mhos 26 - Snow Slight 0.04 in 0.0 iph
02/23/2017 08:15 Ice Warning 21.7F - 32F 32F 50 0% - - 100% 0 mhos 26 - Snow Slight 0.04 in 0.0 iph
Date/Time
(MST)
Sf
Temp Chem Water Layer Surface Precipitation
Sfc Pvt Sub Frz Factor Pct Dpth DpthThk IcePct Cond Salin FI Type Intens Accum Rate
02/23/2017 08:06 Ice Warning 21.7F - 32F 32F 45 0% - - 100% 0 mhos 24 - Snow Slight 0.04 in 0.0 iph
02/23/2017 08:05 Ice Warning 21.7F - 32F 32F 45 0% - - 100% 0 mhos 24 - Snow Slight 0.04 in 0.0 iph
02/23/2017 07:55 Ice Warning 21.7F - 32F 32F 30 0% - - 100% 0 mhos 24 - Snow Slight 0.04 in 0.0 iph
02/23/2017 07:51 Ice Warning 21.7F - 32F 32F 30 0% - - 100% 0 mhos 23 - Snow Slight 0.04 in 0.0 iph
02/23/2017 07:45 Ice Warning 21.7F - 32F 32F 30 0% - - 100% 0 mhos 23 - Snow Slight 0.04 in 0.0 iph
02/23/2017 07:36 Ice Warning 22.1F - 32F 32F 30 0% - - 100% 0 mhos 22 - Snow Slight 0.04 in 0.0 iph
02/23/2017 07:34 Ice Warning 21.9F - 32F 32F 30 0% - - 100% 0 mhos 22 - Snow Slight 0.04 in 0.0 iph
02/23/2017 07:24 Ice Warning 21.9F - 32F 32F 20 0% - - 100% 0 mhos 21 - Snow Slight 0.04 in 0.0 iph
02/23/2017 07:22 Ice Warning 21.9F - 32F 32F 20 0% - - 100% 0 mhos 21 - Snow Slight 0.04 in 0.0 iph
02/23/2017 07:14 Ice Warning 22.1F - 32F 32F 10 0% - - 100% 0 mhos 20 - Snow Slight 0.04 in 0.0 iph
02/23/2017 07:06 Ice Warning 22.3F - 32F 32F 5 0% - - 100% 0 mhos 19 - Snow Slight 0.04 in 0.0 iph
02/23/2017 07:04 Ice Warning 22.5F - 32F 32F 5 0% - - 100% 0 mhos 19 - Snow Slight 0.04 in 0.0 iph
02/23/2017 06:54 Ice Warning 22.5F - 32F 32F 5 0% - - 100% 0 mhos 19 - Snow Slight 0.04 in 0.0 iph
02/23/2017 06:51 Ice Warning 22.5F - 32F 32F 5 0% - - 100% 0 mhos 20 - Snow Slight 0.04 in 0.0 iph
02/23/2017 06:44 Ice Warning 22.6F - 32F 32F 5 0% - - 100% 0 mhos 20 - Snow Slight 0.04 in 0.0 iph
Date/Time
(MST)
Sf
Temp Chem Water Layer Surface Precipitation
Sfc Pvt Sub Frz Factor Pct Dpth DpthThk IcePct Cond Salin FI Type Intens Accum Rate
02/23/2017 06:36 Ice Warning 22.8F - 32F 32F 5 0% - - 100% 0 mhos 21 - Snow Slight 0.04 in 0.0 iph
02/23/2017 06:34 Ice Warning 22.8F - 32F 32F 5 0% - - 100% 0 mhos 21 - Snow Slight 0.04 in 0.0 iph
02/23/2017 06:24 Ice Warning 23.0F - 32F 32F 5 0% - - 100% 0 mhos 21 - Snow Slight 0.04 in 0.0 iph
02/23/2017 06:21 Ice Warning 23.0F - 32F 32F 5 0% - - 100% 0 mhos 21 - Snow Slight 0.04 in 0.0 iph
02/23/2017 06:14 Ice Warning 23.2F - 32F 32F 5 0% - - 100% 0 mhos 21 - Snow Slight 0.04 in 0.0 iph
02/23/2017 06:06 Ice Warning 23.9F - 32F 32F 10 0% - - 100% 0 mhos 21 - Snow Slight 0.03 in 0.0 iph
02/23/2017 06:04 Ice Warning 23.9F - 32F 32F 10 0% - - 100% 0 mhos 21 - Snow Slight 0.03 in 0.0 iph
02/23/2017 05:54 Ice Warning 24.1F - 32F 32F 10 0% - - 100% 0 mhos 21 - Snow Slight 0.03 in 0.0 iph
02/23/2017 05:51 Ice Warning 23.9F - 32F 32F 10 0% - - 100% 0 mhos 21 - Snow Slight 0.03 in 0.0 iph
02/23/2017 05:44 Ice Warning 23.9F - 32F 32F 10 0% - - 100% 0 mhos 21 - Snow Slight 0.03 in 0.0 iph
02/23/2017 05:36 Ice Warning 23.9F - 32F 32F 10 0% - - 100% 0 mhos 21 - Snow Slight 0.03 in 0.0 iph
02/23/2017 05:34 Ice Warning 23.9F - 32F 32F 10 0% - - 100% 0 mhos 21 - Snow Slight 0.03 in 0.0 iph
02/23/2017 05:24 Ice Warning 24.1F - 32F 32F 10 0% - - 100% 0 mhos 21 - Snow Slight 0.03 in 0.0 iph
02/23/2017 05:21 Ice Warning 24.1F - 32F 32F 10 0% - - 100% 0 mhos 21 - Snow Slight 0.03 in 0.0 iph
02/23/2017 05:14 Ice Warning 24.6F - 32F 32F 10 0% - - 100% 0 mhos 21 - Snow Slight 0.03 in 0.0 iph
Date/Time
(MST)
Sf
Temp Chem Water Layer Surface Precipitation
Sfc Pvt Sub Frz Factor Pct Dpth DpthThk IcePct Cond Salin FI Type Intens Accum Rate
02/23/2017 05:06 Ice Warning 24.8F - 32F 32F 10 0% - - 100% 0 mhos 21 - Snow Slight 0.03 in 0.0 iph
02/23/2017 05:04 Ice Warning 24.8F - 32F 32F 10 0% - - 100% 0 mhos 21 - Snow Slight 0.03 in 0.0 iph
02/23/2017 04:54 Ice Warning 25.2F - 32F 32F 10 0% - - 100% 0 mhos 21 - Snow Slight 0.03 in 0.0 iph
02/23/2017 04:51 Ice Warning 25.0F - 32F 32F 10 0% - - 100% 0 mhos 21 - Snow Slight 0.03 in 0.0 iph
02/23/2017 04:44 Ice Warning 25.0F - 32F 32F 10 0% - - 100% 0 mhos 21 - Snow Slight 0.03 in 0.0 iph
02/23/2017 04:36 Ice Warning 25.0F - 32F 32F 10 0% - - 100% 0 mhos 21 - Snow Slight 0.03 in 0.0 iph
02/23/2017 04:34 Ice Warning 25.3F - 32F 32F 10 0% - - 100% 0 mhos 21 - Snow Slight 0.03 in 0.0 iph
02/23/2017 04:24 Ice Warning 25.5F - 32F 32F 10 0% - - 100% 0 mhos 20 - Snow Slight 0.02 in 0.0 iph
02/23/2017 04:21 Ice Warning 25.5F - 32F 32F 10 0% - - 100% 0 mhos 20 - Snow Slight 0.02 in 0.0 iph
02/23/2017 04:14 Ice Warning 25.3F - 32F 32F 10 0% - - 100% 0 mhos 20 - Snow Slight 0.02 in 0.0 iph
02/23/2017 04:06 Ice Warning 25.0F - 32F 32F 10 0% - - 100% 0 mhos 19 - Snow Slight 0.02 in 0.0 iph
02/23/2017 04:04 Ice Warning 25.0F - 32F 32F 10 0% - - 100% 0 mhos 19 - Snow Slight 0.02 in 0.0 iph
02/23/2017 03:54 Ice Warning 24.8F - 32F 32F 10 0% - - 100% 0 mhos 19 - Snow Slight 0.01 in 0.0 iph
02/23/2017 03:51 Ice Warning 24.8F - 32F 32F 10 0% - - 100% 0 mhos 19 - Snow Slight 0.01 in 0.0 iph
02/23/2017 03:44 Ice Warning 24.6F - 32F 32F 10 0% - - 100% 0 mhos 19 - Snow Slight 0.01 in 0.0 iph
Date/Time
(MST)
Sf
Temp Chem Water Layer Surface Precipitation
Sfc Pvt Sub Frz Factor Pct Dpth DpthThk IcePct Cond Salin FI Type Intens Accum Rate
02/23/2017 03:36 Ice Warning 24.6F - 32F 32F 10 0% - - 100% 0 mhos 19 - Snow Slight 0.01 in 0.0 iph
02/23/2017 03:34 Ice Warning 24.4F - 32F 32F 10 0% - - 100% 0 mhos 19 - Snow Slight 0.01 in 0.0 iph
02/23/2017 03:24 Ice Warning 24.6F - 32F 32F 10 0% - - 100% 0 mhos 19 - Snow Slight 0.01 in 0.0 iph
02/23/2017 03:21 Ice Warning 24.6F - 32F 32F 10 0% - - 100% 0 mhos 18 - Snow Slight 0.01 in 0.0 iph
02/23/2017 03:14 Ice Warning 24.8F - 32F 32F 10 0% - - 100% 0 mhos 18 - Snow Slight 0.01 in 0.0 iph
02/23/2017 03:06 Ice Warning 24.8F - 32F 32F 10 0% - - 100% 0 mhos 18 - Snow Slight 0.01 in 0.0 iph
02/23/2017 03:04 Ice Warning 24.8F - 32F 32F 10 0% - - 100% 0 mhos 18 - Snow Slight 0.01 in 0.0 iph
02/23/2017 02:54 Ice Warning 25.0F - 32F 32F 10 0% - - 100% 0 mhos 18 - Snow Slight 0.01 in 0.0 iph
02/23/2017 02:51 Ice Warning 25.0F - 32F 32F 10 0% - - 100% 0 mhos 18 - Snow Slight 0.01 in 0.0 iph
02/23/2017 02:44 Ice Warning 25.0F - 32F 32F 10 0% - - 100% 0 mhos 18 - Snow Slight 0.01 in 0.0 iph
02/23/2017 02:36 Ice Warning 25.2F - 32F 32F 10 0% - - 100% 0 mhos 18 - Snow Slight 0.01 in 0.0 iph
02/23/2017 02:34 Ice Warning 25.2F - 32F 32F 10 0% - - 100% 0 mhos 18 - Snow Slight 0.01 in 0.0 iph
02/23/2017 02:24 Ice Warning 25.3F - 32F 32F 10 0% - - 100% 0 mhos 18 - Snow Slight 0.01 in 0.0 iph
02/23/2017 02:21 Ice Warning 25.3F - 32F 32F 10 0% - - 100% 0 mhos 18 - Snow Slight 0.01 in 0.0 iph
02/23/2017 02:13 Ice Warning 25.5F - 32F 32F 10 0% - - 100% 0 mhos 18 - Snow Slight 0.01 in 0.0 iph
Date/Time
(MST)
Sf
Temp Chem Water Layer Surface Precipitation
Sfc Pvt Sub Frz Factor Pct Dpth DpthThk IcePct Cond Salin FI Type Intens Accum Rate
02/23/2017 02:06 Ice Warning 25.9F - 32F 32F 10 0% - - 100% 0 mhos 17 - Snow Slight 0.01 in 0.0 iph
02/23/2017 02:03 Ice Warning 26.1F - 32F 32F 10 0% - - 100% 0 mhos 17 - Snow Slight 0.01 in 0.0 iph
02/23/2017 01:53 Ice Warning 26.4F - 32F 32F 15 0% - - 100% 0 mhos 16 - Snow Slight 0.01 in 0.0 iph
02/23/2017 01:51 Ice Warning 26.6F - 32F 32F 15 0% - - 100% 0 mhos 16 - Snow Slight 0.01 in 0.0 iph
02/23/2017 01:43 Ice Warning 27.1F - 32F 32F 15 0% - - 100% 0 mhos 15 - Snow Slight 0.01 in 0.0 iph
02/23/2017 01:36 Ice Warning 27.3F - 32F 32F 15 0% - - 100% 0 mhos 14 - Snow Slight 0.01 in 0.0 iph
02/23/2017 01:33 Ice Warning 27.3F - 32F 32F 15 0% - - 100% 0 mhos 14 - Snow Slight 0.01 in 0.0 iph
02/23/2017 01:23 Ice Warning 27.5F - 32F 32F 15 0% - - 100% 0 mhos 13 - Snow Slight 0.01 in 0.0 iph
02/23/2017 01:21 Ice Warning 27.5F - 32F 32F 15 0% - - 100% 0 mhos 12 - Snow Slight 0.01 in 0.0 iph
02/23/2017 01:13 Ice Warning 27.3F - 32F 32F 15 0% - - 100% 0 mhos 11 - Snow Slight 0.01 in 0.0 iph
02/23/2017 01:06 Ice Warning 27.3F - 32F 32F 15 0% - - 100% 0 mhos 9 - Snow Slight 0.01 in 0.0 iph
02/23/2017 01:03 Ice Warning 27.3F - 32F 32F 15 0% - - 100% 0 mhos 9 - Snow Slight 0.00 in 0.0 iph
02/23/2017 00:53 Ice Warning 27.5F - 32F 32F 15 0% - - 100% 0 mhos 7 - Snow Slight 0.00 in 0.0 iph
02/23/2017 00:51 Ice Warning 27.3F - 32F 32F 15 0% - - 100% 0 mhos 7 - Snow Slight 0.00 in 0.0 iph
02/23/2017 00:43 Ice Warning 27.5F - 32F 32F 15 0% - - 100% 0 mhos 6 - Snow Slight 0.00 in 0.0 iph
Date/Time
(MST)
Sf
Temp Chem Water Layer Surface Precipitation
Sfc Pvt Sub Frz Factor Pct Dpth DpthThk IcePct Cond Salin FI Type Intens Accum Rate
02/23/2017 00:36 Ice Warning 27.7F - 32F 32F 15 0% - - 100% 0 mhos 5 - Snow Slight 0.00 in 0.0 iph
02/23/2017 00:33 Ice Warning 27.9F - 32F 32F 15 0% - - 100% 0 mhos 5 - Snow Slight 0.00 in 0.0 iph
02/23/2017 00:23 Ice Warning 27.9F - 32F 32F 15 0% - - 100% 0 mhos 4 - Snow Slight 0.00 in 0.0 iph
02/23/2017 00:21 Ice Warning 27.9F - 32F 32F 15 0% - - 100% 0 mhos 4 - Snow Slight 0.00 in 0.0 iph
02/23/2017 00:13 Ice Warning 27.9F - 32F 32F 15 0% - - 100% 0 mhos 3 - Snow Slight 0.00 in 0.0 iph
02/23/2017 00:06 Ice Warning 27.9F - 32F 32F 15 0% - - 100% 0 mhos 3 - Snow Slight 0.00 in 0.0 iph
02/23/2017 00:03 Ice Warning 27.9F - 32F 32F 15 0% - - 100% 0 mhos 3 - Snow Slight 0.00 in 0.0 iph
02/22/2017 23:53 Ice Warning 27.9F - 32F 32F 15 0% - - 100% 0 mhos 2 - Snow Slight 0.00 in 0.0 iph
02/22/2017 23:51 Ice Warning 27.9F - 32F 32F 15 0% - - 100% 0 mhos 2 - Snow Slight 0.00 in 0.0 iph
02/22/2017 23:43 Ice Warning 27.7F - 32F 32F 20 0% - - 100% 0 mhos 2 - Snow Slight 0.00 in 0.0 iph
02/22/2017 23:36 Ice Warning 27.5F - 32F 32F 15 0% - - 100% 0 mhos 2 - Snow Slight 0.00 in 0.0 iph
02/22/2017 23:33 Ice Warning 27.7F - 32F 32F 5 0% - - 100% 0 mhos 2 - Snow Slight 0.00 in 0.0 iph
02/22/2017 23:23 Ice Warning 27.7F - 32F 32F 5 0% - - 100% 0 mhos 2 - Snow Slight 0.00 in 0.0 iph
02/22/2017 23:21 Ice Warning 27.9F - 32F 32F 5 0% - - 100% 0 mhos 2 - Snow Slight 0.00 in 0.0 iph
02/22/2017 23:13 Ice Warning 28.0F - 32F 32F 5 0% - - 100% 0 mhos 1 - Snow Slight 0.00 in 0.0 iph
Date/Time
(MST)
Sf
Temp Chem Water Layer Surface Precipitation
Sfc Pvt Sub Frz Factor Pct Dpth DpthThk IcePct Cond Salin FI Type Intens Accum Rate
02/22/2017 23:06 Ice Warning 28.0F - 32F 32F 5 0% - - 100% 0 mhos 1 - Snow Slight 0.00 in 0.0 iph
02/22/2017 23:03 Ice Warning 28.0F - 32F 32F 5 0% - - 100% 0 mhos 1 - Snow Slight 0.00 in 0.0 iph
02/22/2017 22:53 Ice Warning 28.0F - 32F 32F 5 0% - - 100% 0 mhos 1 - Snow Slight 0.00 in 0.0 iph
02/22/2017 22:51 Ice Warning 28.0F - 32F 32F 5 0% - - 100% 0 mhos 1 - Snow Slight 0.00 in 0.0 iph
02/22/2017 22:43 Ice Warning 28.0F - 32F 32F 5 0% - - 100% 0 mhos 1 - Snow Slight 0.00 in 0.0 iph
02/22/2017 22:36 Ice Warning 28.0F - 32F 32F 5 0% - - 100% 0 mhos 1 - Snow Slight 0.00 in 0.0 iph
02/22/2017 22:33 Ice Warning 28.0F - 32F 32F 5 0% - - 100% 0 mhos 1 - None None 0.00 in 0.0 iph
02/22/2017 22:23 Ice Warning 28.4F - 32F 32F 5 0% - - 100% 0 mhos 1 - Snow Slight 0.00 in 0.0 iph
02/22/2017 22:21 Ice Warning 28.4F - 32F 32F 5 0% - - 100% 0 mhos 1 - Snow Slight 0.00 in 0.0 iph
02/22/2017 22:13 Ice Warning 28.6F - 32F 32F 5 0% - - 100% 0 mhos 1 - Snow Slight 0.00 in 0.0 iph
02/22/2017 22:06 Ice Warning 29.1F - 32F 32F 5 0% - - 100% 0 mhos 1 - Snow Slight 0.00 in 0.0 iph
02/22/2017 22:03 Ice Warning 28.8F - 32F 32F 5 0% - - 100% 0 mhos 1 - None None 0.00 in 0.0 iph
02/22/2017 21:53 Ice Warning 28.9F - 32F 32F 5 0% - - 100% 0 mhos 1 - Snow Slight 0.00 in 0.0 iph
02/22/2017 21:51 Ice Warning 29.1F - 32F 32F 5 0% - - 100% 0 mhos 1 - Snow Slight 0.00 in 0.0 iph
02/22/2017 21:43 Ice Warning 29.1F - 32F 32F 5 0% - - 100% 0 mhos 1 - Snow Slight 0.00 in 0.0 iph
Date/Time
(MST)
Sf
Temp Chem Water Layer Surface Precipitation
Sfc Pvt Sub Frz Factor Pct Dpth DpthThk IcePct Cond Salin FI Type Intens Accum Rate
02/22/2017 21:36 Ice Warning 29.3F - 32F 32F 5 0% - - 100% 0 mhos 1 - Snow Slight 0.00 in 0.0 iph
02/22/2017 21:33 Ice Warning 29.3F - 32F 32F 5 0% - - 100% 0 mhos 1 - None None 0.00 in 0.0 iph
02/22/2017 21:23 Dry 29.5F - 32F - - - - - - 0 mhos 0 - None None 0.00 in 0.0 iph
02/22/2017 21:21 Dry 29.5F - 32F - - - - - - 0 mhos 0 - None None 0.00 in 0.0 iph
02/22/2017 21:12 Dry 29.5F - 32F - - - - - - 0 mhos 0 - Snow Slight 0.00 in 0.0 iph
02/22/2017 21:06 Dry 29.5F - 32F - - - - - - 0 mhos 0 - None None 0.00 in 0.0 iph
02/22/2017 21:02 Dry 29.5F - 32F - - - - - - 0 mhos 0 - None None 0.00 in 0.0 iph
02/22/2017 20:52 Dry 29.7F - 32F - - - - - - 0 mhos 0 - None None 0.00 in 0.0 iph
02/22/2017 20:51 Dry 29.7F - 32F - - - - - - 0 mhos 0 - None None 0.00 in 0.0 iph
02/22/2017 20:42 Dry 29.7F - 32F - - - - - - 0 mhos 0 - None None 0.00 in 0.0 iph
02/22/2017 20:36 Dry 29.5F - 32F - - - - - - 0 mhos 0 - None None 0.00 in 0.0 iph
02/22/2017 20:32 Dry 29.8F - 32F - - - - - - 0 mhos 0 - None None 0.00 in 0.0 iph
02/22/2017 20:22 Dry 30.0F - 32F - - - - - - 0 mhos 0 - None None 0.00 in 0.0 iph
02/22/2017 20:21 Dry 30.0F - 32F - - - - - - 0 mhos 0 - None None 0.00 in 0.0 iph
02/22/2017 20:12 Dry 30.0F - 32F - - - - - - 0 mhos 0 - None None 0.00 in 0.0 iph
Date/Time
(MST)
Sf
Temp Chem Water Layer Surface Precipitation
Sfc Pvt Sub Frz Factor Pct Dpth DpthThk IcePct Cond Salin FI Type Intens Accum Rate
02/22/2017 20:06 Dry 30.2F - 32F - - - - - - 0 mhos 0 - None None 0.00 in 0.0 iph
02/22/2017 20:02 Dry 30.2F - 32F - - - - - - 0 mhos 0 - None None 0.00 in 0.0 iph
02/22/2017 19:52 Dry 30.4F - 32F - - - - - - 0 mhos 0 - None None 0.00 in 0.0 iph
02/22/2017 19:51 Dry 30.4F - 32F - - - - - - 0 mhos 0 - None None 0.00 in 0.0 iph
02/22/2017 19:42 Dry 30.6F - 32F - - - - - - 0 mhos 0 - None None 0.00 in 0.0 iph
02/22/2017 19:36 Dry 30.7F - 32F - - - - - - 0 mhos 0 - None None 0.00 in 0.0 iph
02/22/2017 19:32 Dry 30.7F - 32F - - - - - - 0 mhos 0 - None None 0.00 in 0.0 iph
02/22/2017 19:22 Dry 30.7F - 32F - - - - - - 0 mhos 0 - None None 0.00 in 0.0 iph
02/22/2017 19:21 Dry 30.9F - 32F - - - - - - 0 mhos 0 - None None 0.00 in 0.0 iph
02/22/2017 19:12 Dry 31.3F - 32F - - - - - - 0 mhos 0 - None None 0.01 in 0.0 iph
02/22/2017 19:06 Dry 31.5F - 32F - - - - - - 0 mhos 0 - None None 0.01 in 0.0 iph
02/22/2017 19:02 Dry 31.3F - 32F - - - - - - 0 mhos 0 - None None 0.01 in 0.0 iph
02/22/2017 18:52 Dry 31.6F - 32F - - - - - - 0 mhos 0 - None None 0.01 in 0.0 iph
02/22/2017 18:51 Dry 31.6F - 32F - - - - - - 0 mhos 0 - None None 0.01 in 0.0 iph
02/22/2017 18:42 Dry 31.8F - 32F - - - - - - 0 mhos 0 - None None 0.01 in 0.0 iph
Date/Time
(MST)
Sf
Temp Chem Water Layer Surface Precipitation
Sfc Pvt Sub Frz Factor Pct Dpth DpthThk IcePct Cond Salin FI Type Intens Accum Rate
02/22/2017 18:36 Dry 32.0F - 32F - - - - - - 0 mhos 0 - None None 0.01 in 0.0 iph
02/22/2017 18:32 Dry 32.0F - 32F - - - - - - 0 mhos 0 - None None 0.01 in 0.0 iph
02/22/2017 18:22 Dry 32.5F - 32F - - - - - - 0 mhos 0 - None None 0.01 in 0.0 iph
02/22/2017 18:21 Dry 32.5F - 32F - - - - - - 0 mhos 0 - None None 0.01 in 0.0 iph
02/22/2017 18:12 Dry 32.7F - 32F - - - - - - 0 mhos 0 - None None 0.01 in 0.0 iph
02/22/2017 18:06 Dry 33.1F - 32F - - - - - - 0 mhos 0 - None None 0.01 in 0.0 iph
02/22/2017 18:02 Dry 33.3F - 32F - - - - - - 0 mhos 0 - None None 0.02 in 0.0 iph
02/22/2017 17:52 Dry 33.8F - 32F - - - - - - 0 mhos 0 - None None 0.02 in 0.0 iph
02/22/2017 17:51 Dry 33.8F - 32F - - - - - - 0 mhos 0 - None None 0.02 in 0.0 iph
02/22/2017 17:42 Dry 34.2F - 32F - - - - - - 0 mhos 0 - None None 0.02 in 0.0 iph
02/22/2017 17:36 Dry 34.9F - 32F - - - - - - 0 mhos 0 - None None 0.02 in 0.0 iph
02/22/2017 17:32 Dry 34.9F - 32F - - - - - - 0 mhos 0 - None None 0.02 in 0.0 iph
02/22/2017 17:22 Dry 35.8F - 32F - - - - - - 0 mhos 1 - None None 0.02 in 0.0 iph
02/22/2017 17:21 Dry 35.6F - 32F - - - - - - 0 mhos 1 - None None 0.02 in 0.0 iph
02/22/2017 17:12 Dry 36.5F - 32F - - - - - - 0 mhos 1 - None None 0.02 in 0.0 iph
Date/Time
(MST)
Sf
Temp Chem Water Layer Surface Precipitation
Sfc Pvt Sub Frz Factor Pct Dpth DpthThk IcePct Cond Salin FI Type Intens Accum Rate
02/22/2017 17:06 Dry 36.9F - 32F - - - - - - 0 mhos 1 - None None 0.02 in 0.0 iph
02/22/2017 17:02 Dry 37.4F - 32F - - - - - - 0 mhos 1 - None None 0.02 in 0.0 iph
02/22/2017 16:52 Dry 37.9F - 32F - - - - - - 0 mhos 1 - None None 0.02 in 0.0 iph
02/22/2017 16:51 Dry 38.3F - 32F - - - - - - 0 mhos 1 - None None 0.02 in 0.0 iph
02/22/2017 16:42 Dry 39.0F - 32F - - - - - - 0 mhos 2 - None None 0.03 in 0.0 iph
02/22/2017 16:36 Dry 39.6F - 32F - - - - - - 0 mhos 2 - None None 0.03 in 0.0 iph
02/22/2017 16:32 Dry 39.9F - 32F - - - - - - 0 mhos 2 - None None 0.03 in 0.0 iph
02/22/2017 16:22 Dry 40.3F - 32F - - - - - - 0 mhos 4 - None None 0.04 in 0.0 iph
02/22/2017 16:21 Dry 40.3F - 32F - - - - - - 0 mhos 4 - None None 0.04 in 0.0 iph
02/22/2017 16:12 Dry 40.5F - 32F - - - - - - 0 mhos 6 - None None 0.04 in 0.0 iph
02/22/2017 16:06 Dry 40.6F - 32F - - - - - - 0 mhos 7 - None None 0.04 in 0.0 iph
02/22/2017 16:02 Dry 41.0F - 32F - - - - - - 0 mhos 9 - None None 0.05 in 0.0 iph
02/22/2017 15:52 Dry 39.9F - 32F - - - - - - 0 mhos 12 - None None 0.06 in 0.0 iph
02/22/2017 15:51 Dry 40.1F - 32F - - - - - - 0 mhos 13 - None None 0.06 in 0.0 iph
02/22/2017 15:42 Dry 40.3F - 32F - - - - - - 0 mhos 15 - None None 0.06 in 0.0 iph
Date/Time
(MST)
Sf
Temp Chem Water Layer Surface Precipitation
Sfc Pvt Sub Frz Factor Pct Dpth DpthThk IcePct Cond Salin FI Type Intens Accum Rate
02/22/2017 15:36 Dry 40.5F - 32F - - - - - - 0 mhos 17 - None None 0.06 in 0.0 iph
02/22/2017 15:32 Dry 40.6F - 32F - - - - - - 0 mhos 18 - None None 0.06 in 0.0 iph
02/22/2017 15:22 Dry 41.2F - 32F - - - - - - 0 mhos 22 - None None 0.06 in 0.0 iph
02/22/2017 15:21 Dry 41.2F - 32F - - - - - - 0 mhos 22 - None None 0.06 in 0.0 iph
02/22/2017 15:11 Dry 41.5F - 32F - - - - - - 0 mhos 25 - None None 0.06 in 0.0 iph
02/22/2017 15:06 Dry 41.4F - 32F - - - - - - 0 mhos 27 - None None 0.06 in 0.0 iph
02/22/2017 15:01 Dry 41.5F - 32F - - - - - - 0 mhos 29 - None None 0.06 in 0.0 iph
02/22/2017 14:51 Dry 41.2F - 32F - - - - - - 0 mhos 32 - None None 0.06 in 0.0 iph
02/22/2017 14:51 Dry 41.2F - 32F - - - - - - 0 mhos 32 - None None 0.06 in 0.0 iph
02/22/2017 14:41 Dry 41.5F - 32F - - - - - - 0 mhos 36 - None None 0.06 in 0.0 iph
02/22/2017 14:36 Dry 42.1F - 32F - - - - - - 0 mhos 39 - None None 0.06 in 0.0 iph
02/22/2017 14:31 Dry 43.2F - 32F - - - - - - 0 mhos 43 - None None 0.06 in 0.0 iph
02/22/2017 14:21 Dry 42.4F - 32F - - - - - - 1 mhos 51 - None None 0.06 in 0.0 iph
02/22/2017 14:21 Dry 42.4F - 32F - - - - - - 1 mhos 51 - None None 0.06 in 0.0 iph
02/22/2017 14:11 Wet 41.2F - 32F 32F 5 0% 0.00 in - 0% 1 mhos 60 - None None 0.06 in 0.0 iph
Date/Time
(MST)
Sf
Temp Chem Water Layer Surface Precipitation
Sfc Pvt Sub Frz Factor Pct Dpth DpthThk IcePct Cond Salin FI Type Intens Accum Rate
02/22/2017 14:06 Wet 41.2F - 32F 32F 5 0% 0.00 in - 0% 1 mhos 67 - None None 0.06 in 0.0 iph
02/22/2017 14:01 Wet 42.4F - 32F 32F 5 0% 0.00 in - 0% 1 mhos 75 - None None 0.06 in 0.0 iph
02/22/2017 13:51 Wet 42.8F - 32F 32F 85 0% 0.00 in - 0% 1 mhos 100 - None None 0.06 in 0.0 iph
02/22/2017 13:51 Wet 42.8F - 32F 32F 85 0% 0.00 in - 0% 1 mhos 100 - None None 0.06 in 0.0 iph
02/22/2017 13:41 Wet 41.7F - 32F 32F 95 0% 0.00 in - 0% 1 mhos 124 - None None 0.06 in 0.0 iph
02/22/2017 13:36 Wet 41.0F - 32F 32F 95 1% 0.00 in - 0% 1 mhos 130 - None None 0.06 in 0.0 iph
02/22/2017 13:31 Wet 40.5F - 32F 32F 95 1% 0.00 in - 0% 1 mhos 142 - None None 0.07 in 0.0 iph
02/22/2017 13:21 Wet 38.7F - 32F 32F 70 1% 0.00 in - 0% 2 mhos 156 - None None 0.07 in 0.0 iph
02/22/2017 13:21 Wet 38.7F - 32F 32F 70 1% 0.00 in - 0% 2 mhos 156 - None None 0.07 in 0.0 iph
02/22/2017 13:11 Wet 37.8F - 32F 32F 75 1% 0.00 in - 0% 2 mhos 161 - None None 0.07 in 0.0 iph
02/22/2017 13:06 Wet 38.1F - 32F 32F 80 1% 0.00 in - 0% 2 mhos 183 - None None 0.07 in 0.0 iph
02/22/2017 13:01 Wet 38.1F - 32F 32F 95 1% 0.00 in - 0% 2 mhos 176 - None None 0.08 in 0.0 iph
02/22/2017 12:51 Wet 38.3F - 32F 32F 85 1% 0.00 in - 0% 2 mhos 162 - Snow Slight 0.08 in 0.0 iph
02/22/2017 12:51 Wet 38.3F - 32F 32F 85 1% 0.00 in - 0% 2 mhos 162 - Snow Slight 0.08 in 0.0 iph
02/22/2017 12:41 Wet 39.9F - 32F 32F 85 1% 0.00 in - 0% 2 mhos 161 - None None 0.09 in 0.0 iph
Date/Time
(MST)
Sf
Temp Chem Water Layer Surface Precipitation
Sfc Pvt Sub Frz Factor Pct Dpth DpthThk IcePct Cond Salin FI Type Intens Accum Rate
02/22/2017 12:36 Wet 39.0F - 32F 32F 70 1% 0.00 in - 0% 2 mhos 169 - None None 0.09 in 0.0 iph
02/22/2017 12:31 Wet 38.8F - 32F 32F 85 1% 0.00 in - 0% 2 mhos 161 - None None 0.09 in 0.0 iph
02/22/2017 12:21 Wet 38.7F - 32F 32F 85 1% 0.00 in - 0% 2 mhos 174 - None None 0.09 in 0.0 iph
02/22/2017 12:21 Wet 38.7F - 32F 32F 85 1% 0.00 in - 0% 2 mhos 174 - None None 0.09 in 0.0 iph
02/22/2017 12:11 Wet 39.4F - 32F 32F 85 1% 0.00 in - 0% 2 mhos 146 - None None 0.10 in 0.0 iph
02/22/2017 12:06 Wet 39.6F - 32F 32F 90 1% 0.00 in - 0% 2 mhos 208 - None None 0.10 in 0.0 iph
02/22/2017 12:01 Wet 40.3F - 32F 32F 95 1% 0.00 in - 0% 2 mhos 222 - None None 0.10 in 0.0 iph
02/22/2017 11:51 Wet 41.7F - 32F 32F 95 1% 0.00 in - 0% 2 mhos 199 - None None 0.11 in 0.0 iph
02/22/2017 11:51 Wet 41.7F - 32F 32F 95 1% 0.00 in - 0% 2 mhos 199 - None None 0.11 in 0.0 iph
02/22/2017 11:41 Wet 41.0F - 32F 32F 75 1% 0.00 in - 0% 2 mhos 178 - None None 0.11 in 0.0 iph
02/22/2017 11:36 Wet 40.5F - 32F 32F 95 1% 0.00 in - 0% 3 mhos 300 - None None 0.11 in 0.0 iph
02/22/2017 11:31 Wet 38.8F - 32F 32F 95 1% 0.00 in - 0% 3 mhos 311 - None None 0.12 in 0.0 iph
Change End Date:

Copyright © 1998-2015 Vaisala, Inc.
All Rights Reserved
Send comments about the data to:
SCAN Web ® is a registered trademark of Vaisala, Inc.
SCAN Web Version 6.0